OEYN Airport Information

Runway Information
Runway 10 Length 10532 ft width 148 ft
Elevation 18 ft Threshold 0 ft Heading 103
Runway 28 Length 10532 ft Width 148 ft
Elevation 26 ft Threshold 0 ft Heading 283
Airport Frequencies
Type AFIS Name INFO Frequency 118.1 MHZ
Type CTAF Name CTAF Frequency 122.8 MHZ
Type MISC Name FIRE RESCU Frequency 133.5 MHZ
Airport Navaids
Airport Weather Information & NOTAM
ADDS - METARS form results

(1920 UTC 25 June 2018)
 
METAR text: OEYN 251900Z 27012KT 9999 FEW040 SCT100 36/18 Q1000 NOSIG
Conditions at: OEYN (YENBO , SA) observed 1900 UTC 25 June 2018
Temperature: 36.0°C (97°F)
Dewpoint: 18.0°C (64°F) [RH = 35%]
Pressure (altimeter): 29.53 inches Hg (1000.0 mb)
Winds: from the W (270 degrees) at 14 MPH (12 knots; 6.2 m/s)
Visibility: 6 or more miles (10+ km)
Ceiling: at least 12,000 feet AGL
Clouds: few clouds at 4000 feet AGL
scattered clouds at 10000 feet AGL
Weather: no significant weather observed at this time